YUY weather

Rouyn Noranda Airport
Rouyn-Noranda, Quebec, Canada

Public forecast

Using degrees Celsius for public forecast. Weather courtesy of forecast.io.

METAR (pilot weather report)

Retrieved 2019/05/22 06:00 UTC (43 minutes ago):

CYUY 220600Z 00000KT 15SM SKC 02/M00 A3022 RMK SLP243

TAF (pilot weather forecast)

Retrieved 2019/05/22 06:00 UTC (43 minutes ago):

TAF CYUY 220538Z 2206/2218 VRB03KT P6SM FEW260 PROB30 2208/2211 1SM BR SCT004 FM221500 16007KT P6SM FEW040 SCT200 BECMG 2215/2217 FEW050 BKN180 RMK NXT FCST BY 221200Z